WXM80 ListenWXM80 Stop

You find our weather info also at:

UK Metoffice

WeatherCloud

Weather Underground

Northeastern Weather Network

AWEKAS

Citizen Weather Observer Program (CWOP)

HAMweather, WeatherForYou, PWS Weather


Weather Underground History page Text

Daily Summary for March 19, 2017 Units:  Both    English   Metric
« Previous Day
Next Day »
Daily Weekly Monthly Yearly Custom
  High: Low: Average:
Temperature: 45.9 °F /  7.7 °C 32.1 °F /  0.1 °C 37.9 °F /  3.3 °C
Dew Point: 34.0 °F /  1.1 °C 26.2 °F /  -3.2 °C 30.4 °F /  -0.9 °C
Humidity: 84 % 61 % 75 %
Wind Speed: 14.0 mph /  22.5 km/h - 6.7 mph /  10.8 km/h
Wind Gust: 20.7 mph /  33.3 km/h - -
Wind:- - ENE
Pressure: 30.17 in /  1021.6 hPa 30.07 in /  1018.2 hPa -
Precipitation: 0.00 in /  0 mm    
Historical Graphs
 
 
Tabular Data for March 19, 2017
Time Temperature Dew Point Pressure Wind Wind Speed Wind Gust Humidity Rainfall Rate (Hourly)
00:01 35.9 °F /  2.2 °C 30.6 °F /  -0.8 °C 30.14 in /  1020.5 hPa ENE 12.8 mph /  20.6 km/h 16.1 mph /  25.9 km/h 81 % 0.00 in /  0 mm
00:06 35.9 °F /  2.2 °C 30.6 °F /  -0.8 °C 30.15 in /  1020.9 hPa ENE 13.0 mph /  20.9 km/h 18.4 mph /  29.6 km/h 81 % 0.00 in /  0 mm
00:11 35.9 °F /  2.2 °C 30.9 °F /  -0.6 °C 30.15 in /  1020.9 hPa ENE 11.2 mph /  18 km/h 13.8 mph /  22.2 km/h 82 % 0.00 in /  0 mm
00:16 35.7 °F /  2.1 °C 30.4 °F /  -0.9 °C 30.15 in /  1020.9 hPa ENE 10.7 mph /  17.2 km/h 19.6 mph /  31.5 km/h 81 % 0.00 in /  0 mm
00:21 35.6 °F /  2 °C 30.3 °F /  -0.9 °C 30.15 in /  1020.9 hPa ENE 11.4 mph /  18.3 km/h 16.1 mph /  25.9 km/h 81 % 0.00 in /  0 mm
00:26 35.6 °F /  2 °C 30.6 °F /  -0.8 °C 30.15 in /  1020.9 hPa ENE 9.2 mph /  14.8 km/h 12.7 mph /  20.4 km/h 82 % 0.00 in /  0 mm
00:31 35.5 °F /  1.9 °C 30.5 °F /  -0.8 °C 30.15 in /  1020.9 hPa NE 13.4 mph /  21.6 km/h 19.6 mph /  31.5 km/h 82 % 0.00 in /  0 mm
00:36 35.4 °F /  1.9 °C 30.5 °F /  -0.8 °C 30.14 in /  1020.5 hPa East 11.3 mph /  18.2 km/h 17.3 mph /  27.8 km/h 82 % 0.00 in /  0 mm
00:41 35.3 °F /  1.8 °C 30.7 °F /  -0.7 °C 30.14 in /  1020.5 hPa ENE 11.0 mph /  17.7 km/h 16.0 mph /  25.7 km/h 83 % 0.00 in /  0 mm
00:46 35.2 °F /  1.8 °C 30.3 °F /  -0.9 °C 30.14 in /  1020.5 hPa NE 10.2 mph /  16.4 km/h 15.0 mph /  24.1 km/h 82 % 0.00 in /  0 mm
00:51 35.1 °F /  1.7 °C 30.5 °F /  -0.8 °C 30.14 in /  1020.5 hPa NE 11.6 mph /  18.7 km/h 16.1 mph /  25.9 km/h 83 % 0.00 in /  0 mm
00:56 35.0 °F /  1.7 °C 30.1 °F /  -1.1 °C 30.14 in /  1020.5 hPa ENE 11.5 mph /  18.5 km/h 17.3 mph /  27.8 km/h 82 % 0.00 in /  0 mm
01:01 34.9 °F /  1.6 °C 30.0 °F /  -1.1 °C 30.14 in /  1020.5 hPa ENE 11.8 mph /  19 km/h 16.0 mph /  25.7 km/h 82 % 0.00 in /  0 mm
01:06 34.9 °F /  1.6 °C 30.3 °F /  -0.9 °C 30.13 in /  1020.2 hPa ENE 12.7 mph /  20.4 km/h 18.4 mph /  29.6 km/h 83 % 0.00 in /  0 mm
01:11 34.8 °F /  1.6 °C 30.2 °F /  -1 °C 30.13 in /  1020.2 hPa NE 7.8 mph /  12.6 km/h 13.0 mph /  20.9 km/h 83 % 0.00 in /  0 mm
01:16 34.7 °F /  1.5 °C 30.4 °F /  -0.9 °C 30.13 in /  1020.2 hPa ENE 10.2 mph /  16.4 km/h 16.1 mph /  25.9 km/h 84 % 0.00 in /  0 mm
01:21 34.6 °F /  1.4 °C 30.3 °F /  -0.9 °C 30.12 in /  1019.9 hPa NE 10.6 mph /  17.1 km/h 16.1 mph /  25.9 km/h 84 % 0.00 in /  0 mm
01:26 34.6 °F /  1.4 °C 30.0 °F /  -1.1 °C 30.12 in /  1019.9 hPa NE 10.6 mph /  17.1 km/h 15.0 mph /  24.1 km/h 83 % 0.00 in /  0 mm
01:31 34.6 °F /  1.4 °C 30.0 °F /  -1.1 °C 30.12 in /  1019.9 hPa North 10.8 mph /  17.4 km/h 17.3 mph /  27.8 km/h 83 % 0.00 in /  0 mm
01:36 34.6 °F /  1.4 °C 30.0 °F /  -1.1 °C 30.12 in /  1019.9 hPa ENE 12.2 mph /  19.6 km/h 15.0 mph /  24.1 km/h 83 % 0.00 in /  0 mm
01:41 34.7 °F /  1.5 °C 30.4 °F /  -0.9 °C 30.12 in /  1019.9 hPa ENE 13.1 mph /  21.1 km/h 16.1 mph /  25.9 km/h 84 % 0.00 in /  0 mm
01:47 34.7 °F /  1.5 °C 30.4 °F /  -0.9 °C 30.11 in /  1019.5 hPa ENE 11.6 mph /  18.7 km/h 16.1 mph /  25.9 km/h 84 % 0.00 in /  0 mm
01:52 34.7 °F /  1.5 °C 30.4 °F /  -0.9 °C 30.12 in /  1019.9 hPa NE 9.2 mph /  14.8 km/h 16.1 mph /  25.9 km/h 84 % 0.00 in /  0 mm
01:57 34.7 °F /  1.5 °C 30.1 °F /  -1.1 °C 30.12 in /  1019.9 hPa East 10.4 mph /  16.7 km/h 16.1 mph /  25.9 km/h 83 % 0.00 in /  0 mm
02:02 34.8 °F /  1.6 °C 30.2 °F /  -1 °C 30.12 in /  1019.9 hPa ENE 10.0 mph /  16.1 km/h 17.3 mph /  27.8 km/h 83 % 0.00 in /  0 mm
02:07 34.8 °F /  1.6 °C 30.2 °F /  -1 °C 30.12 in /  1019.9 hPa NE 12.8 mph /  20.6 km/h 16.1 mph /  25.9 km/h 83 % 0.00 in /  0 mm
02:12 34.9 °F /  1.6 °C 30.0 °F /  -1.1 °C 30.12 in /  1019.9 hPa NE 11.7 mph /  18.8 km/h 16.1 mph /  25.9 km/h 82 % 0.00 in /  0 mm
02:17 35.0 °F /  1.7 °C 30.4 °F /  -0.9 °C 30.12 in /  1019.9 hPa East 10.7 mph /  17.2 km/h 15.0 mph /  24.1 km/h 83 % 0.00 in /  0 mm
02:22 35.2 °F /  1.8 °C 30.6 °F /  -0.8 °C 30.12 in /  1019.9 hPa NE 10.3 mph /  16.6 km/h 17.3 mph /  27.8 km/h 83 % 0.00 in /  0 mm
02:27 35.2 °F /  1.8 °C 30.3 °F /  -0.9 °C 30.12 in /  1019.9 hPa ENE 12.9 mph /  20.8 km/h 18.4 mph /  29.6 km/h 82 % 0.00 in /  0 mm
02:32 35.3 °F /  1.8 °C 30.4 °F /  -0.9 °C 30.12 in /  1019.9 hPa NE 11.4 mph /  18.3 km/h 16.0 mph /  25.7 km/h 82 % 0.00 in /  0 mm
02:37 35.4 °F /  1.9 °C 30.5 °F /  -0.8 °C 30.12 in /  1019.9 hPa East 13.2 mph /  21.2 km/h 20.7 mph /  33.3 km/h 82 % 0.00 in /  0 mm
02:42 35.4 °F /  1.9 °C 30.1 °F /  -1.1 °C 30.12 in /  1019.9 hPa ENE 13.4 mph /  21.6 km/h 16.1 mph /  25.9 km/h 81 % 0.00 in /  0 mm
02:47 35.4 °F /  1.9 °C 30.1 °F /  -1.1 °C 30.11 in /  1019.5 hPa NE 14.0 mph /  22.5 km/h 19.6 mph /  31.5 km/h 81 % 0.00 in /  0 mm
02:53 35.4 °F /  1.9 °C 30.1 °F /  -1.1 °C 30.11 in /  1019.5 hPa NE 11.2 mph /  18 km/h 17.3 mph /  27.8 km/h 81 % 0.00 in /  0 mm
02:58 35.4 °F /  1.9 °C 30.1 °F /  -1.1 °C 30.11 in /  1019.5 hPa ENE 12.7 mph /  20.4 km/h 19.6 mph /  31.5 km/h 81 % 0.00 in /  0 mm
03:03 35.4 °F /  1.9 °C 30.1 °F /  -1.1 °C 30.11 in /  1019.5 hPa ENE 9.6 mph /  15.4 km/h 17.3 mph /  27.8 km/h 81 % 0.00 in /  0 mm
03:08 35.4 °F /  1.9 °C 30.1 °F /  -1.1 °C 30.11 in /  1019.5 hPa East 12.9 mph /  20.8 km/h 17.3 mph /  27.8 km/h 81 % 0.00 in /  0 mm
03:13 35.4 °F /  1.9 °C 30.1 °F /  -1.1 °C 30.11 in /  1019.5 hPa ENE 12.4 mph /  20 km/h 17.3 mph /  27.8 km/h 81 % 0.00 in /  0 mm
03:18 35.4 °F /  1.9 °C 30.1 °F /  -1.1 °C 30.11 in /  1019.5 hPa ENE 13.5 mph /  21.7 km/h 19.6 mph /  31.5 km/h 81 % 0.00 in /  0 mm
03:23 35.5 °F /  1.9 °C 30.2 °F /  -1 °C 30.12 in /  1019.9 hPa ENE 9.8 mph /  15.8 km/h 13.8 mph /  22.2 km/h 81 % 0.00 in /  0 mm
03:28 35.6 °F /  2 °C 30.3 °F /  -0.9 °C 30.12 in /  1019.9 hPa NE 8.9 mph /  14.3 km/h 13.8 mph /  22.2 km/h 81 % 0.00 in /  0 mm
03:33 35.6 °F /  2 °C 30.3 °F /  -0.9 °C 30.13 in /  1020.2 hPa ENE 9.7 mph /  15.6 km/h 12.7 mph /  20.4 km/h 81 % 0.00 in /  0 mm
03:38 35.6 °F /  2 °C 30.0 °F /  -1.1 °C 30.13 in /  1020.2 hPa ENE 10.4 mph /  16.7 km/h 13.0 mph /  20.9 km/h 80 % 0.00 in /  0 mm
03:43 35.7 °F /  2.1 °C 30.4 °F /  -0.9 °C 30.13 in /  1020.2 hPa ENE 6.0 mph /  9.7 km/h 10.4 mph /  16.7 km/h 81 % 0.00 in /  0 mm
03:48 35.6 °F /  2 °C 30.3 °F /  -0.9 °C 30.13 in /  1020.2 hPa ENE 8.3 mph /  13.4 km/h 16.0 mph /  25.7 km/h 81 % 0.00 in /  0 mm
03:53 35.6 °F /  2 °C 30.0 °F /  -1.1 °C 30.12 in /  1019.9 hPa ENE 7.7 mph /  12.4 km/h 12.7 mph /  20.4 km/h 80 % 0.00 in /  0 mm
03:58 35.6 °F /  2 °C 30.0 °F /  -1.1 °C 30.12 in /  1019.9 hPa NNE 6.8 mph /  10.9 km/h 10.4 mph /  16.7 km/h 80 % 0.00 in /  0 mm
04:03 35.5 °F /  1.9 °C 30.2 °F /  -1 °C 30.13 in /  1020.2 hPa NE 9.0 mph /  14.5 km/h 12.7 mph /  20.4 km/h 81 % 0.00 in /  0 mm
04:08 35.5 °F /  1.9 °C 30.2 °F /  -1 °C 30.13 in /  1020.2 hPa ENE 6.1 mph /  9.8 km/h 10.4 mph /  16.7 km/h 81 % 0.00 in /  0 mm
04:13 35.5 °F /  1.9 °C 30.2 °F /  -1 °C 30.13 in /  1020.2 hPa ENE 9.7 mph /  15.6 km/h 16.1 mph /  25.9 km/h 81 % 0.00 in /  0 mm
04:18 35.5 °F /  1.9 °C 29.9 °F /  -1.2 °C 30.13 in /  1020.2 hPa NE 7.8 mph /  12.6 km/h 13.8 mph /  22.2 km/h 80 % 0.00 in /  0 mm
04:23 35.5 °F /  1.9 °C 30.2 °F /  -1 °C 30.13 in /  1020.2 hPa NE 5.1 mph /  8.2 km/h 6.9 mph /  11.1 km/h 81 % 0.00 in /  0 mm
04:28 35.4 °F /  1.9 °C 30.1 °F /  -1.1 °C 30.13 in /  1020.2 hPa NE 5.0 mph /  8 km/h 8.1 mph /  13 km/h 81 % 0.00 in /  0 mm
04:33 35.4 °F /  1.9 °C 30.1 °F /  -1.1 °C 30.13 in /  1020.2 hPa NE 8.7 mph /  14 km/h 11.5 mph /  18.5 km/h 81 % 0.00 in /  0 mm
04:39 35.4 °F /  1.9 °C 30.1 °F /  -1.1 °C 30.13 in /  1020.2 hPa NNE 5.4 mph /  8.7 km/h 10.4 mph /  16.7 km/h 81 % 0.00 in /  0 mm
04:44 35.3 °F /  1.8 °C 30.1 °F /  -1.1 °C 30.13 in /  1020.2 hPa NE 6.3 mph /  10.1 km/h 10.0 mph /  16.1 km/h 81 % 0.00 in /  0 mm
04:49 35.3 °F /  1.8 °C 30.1 °F /  -1.1 °C 30.13 in /  1020.2 hPa NE 5.4 mph /  8.7 km/h 10.4 mph /  16.7 km/h 81 % 0.00 in /  0 mm
04:54 35.3 °F /  1.8 °C 30.1 °F /  -1.1 °C 30.13 in /  1020.2 hPa NNE 7.7 mph /  12.4 km/h 13.8 mph /  22.2 km/h 81 % 0.00 in /  0 mm
04:59 35.2 °F /  1.8 °C 30.0 °F /  -1.1 °C 30.13 in /  1020.2 hPa NNE 7.8 mph /  12.6 km/h 15.0 mph /  24.1 km/h 81 % 0.00 in /  0 mm
05:04 35.2 °F /  1.8 °C 30.0 °F /  -1.1 °C 30.13 in /  1020.2 hPa NNE 8.7 mph /  14 km/h 15.0 mph /  24.1 km/h 81 % 0.00 in /  0 mm
05:09 35.1 °F /  1.7 °C 29.9 °F /  -1.2 °C 30.13 in /  1020.2 hPa NNE 12.1 mph /  19.5 km/h 16.1 mph /  25.9 km/h 81 % 0.00 in /  0 mm
05:14 35.1 °F /  1.7 °C 29.9 °F /  -1.2 °C 30.13 in /  1020.2 hPa NNE 10.6 mph /  17.1 km/h 16.1 mph /  25.9 km/h 81 % 0.00 in /  0 mm
05:19 35.0 °F /  1.7 °C 29.8 °F /  -1.2 °C 30.13 in /  1020.2 hPa NE 9.0 mph /  14.5 km/h 13.8 mph /  22.2 km/h 81 % 0.00 in /  0 mm
05:24 34.9 °F /  1.6 °C 29.7 °F /  -1.3 °C 30.13 in /  1020.2 hPa NE 10.8 mph /  17.4 km/h 18.4 mph /  29.6 km/h 81 % 0.00 in /  0 mm
05:29 34.8 °F /  1.6 °C 29.3 °F /  -1.5 °C 30.13 in /  1020.2 hPa NE 10.3 mph /  16.6 km/h 16.1 mph /  25.9 km/h 80 % 0.00 in /  0 mm
05:35 34.8 °F /  1.6 °C 29.3 °F /  -1.5 °C 30.14 in /  1020.5 hPa NE 9.7 mph /  15.6 km/h 15.0 mph /  24.1 km/h 80 % 0.00 in /  0 mm
05:40 34.7 °F /  1.5 °C 29.5 °F /  -1.4 °C 30.13 in /  1020.2 hPa NE 10.5 mph /  16.9 km/h 17.3 mph /  27.8 km/h 81 % 0.00 in /  0 mm
05:45 34.7 °F /  1.5 °C 29.5 °F /  -1.4 °C 30.14 in /  1020.5 hPa NNE 8.4 mph /  13.5 km/h 11.5 mph /  18.5 km/h 81 % 0.00 in /  0 mm
05:50 34.7 °F /  1.5 °C 29.2 °F /  -1.6 °C 30.13 in /  1020.2 hPa NE 12.1 mph /  19.5 km/h 18.4 mph /  29.6 km/h 80 % 0.00 in /  0 mm
05:55 34.7 °F /  1.5 °C 29.2 °F /  -1.6 °C 30.14 in /  1020.5 hPa NE 8.7 mph /  14 km/h 15.0 mph /  24.1 km/h 80 % 0.00 in /  0 mm
06:00 34.7 °F /  1.5 °C 29.2 °F /  -1.6 °C 30.14 in /  1020.5 hPa North 8.4 mph /  13.5 km/h 12.7 mph /  20.4 km/h 80 % 0.00 in /  0 mm
06:05 34.6 °F /  1.4 °C 29.1 °F /  -1.6 °C 30.14 in /  1020.5 hPa NNE 10.2 mph /  16.4 km/h 12.0 mph /  19.3 km/h 80 % 0.00 in /  0 mm
06:10 34.6 °F /  1.4 °C 29.1 °F /  -1.6 °C 30.14 in /  1020.5 hPa North 8.4 mph /  13.5 km/h 11.5 mph /  18.5 km/h 80 % 0.00 in /  0 mm
06:15 34.6 °F /  1.4 °C 29.4 °F /  -1.4 °C 30.14 in /  1020.5 hPa NE 8.6 mph /  13.8 km/h 12.7 mph /  20.4 km/h 81 % 0.00 in /  0 mm
06:20 34.6 °F /  1.4 °C 29.4 °F /  -1.4 °C 30.14 in /  1020.5 hPa NNE 9.1 mph /  14.6 km/h 16.1 mph /  25.9 km/h 81 % 0.00 in /  0 mm
06:25 34.6 °F /  1.4 °C 29.4 °F /  -1.4 °C 30.14 in /  1020.5 hPa NE 8.0 mph /  12.9 km/h 10.4 mph /  16.7 km/h 81 % 0.00 in /  0 mm
06:35 34.6 °F /  1.4 °C 29.4 °F /  -1.4 °C 30.14 in /  1020.5 hPa NNE 12.0 mph /  19.3 km/h 18.4 mph /  29.6 km/h 81 % 0.00 in /  0 mm
06:40 34.6 °F /  1.4 °C 29.4 °F /  -1.4 °C 30.15 in /  1020.9 hPa NNE 9.5 mph /  15.3 km/h 17.3 mph /  27.8 km/h 81 % 0.00 in /  0 mm
06:46 34.6 °F /  1.4 °C 29.4 °F /  -1.4 °C 30.15 in /  1020.9 hPa North 11.0 mph /  17.7 km/h 19.6 mph /  31.5 km/h 81 % 0.00 in /  0 mm
06:51 34.6 °F /  1.4 °C 29.1 °F /  -1.6 °C 30.14 in /  1020.5 hPa NNE 9.7 mph /  15.6 km/h 20.7 mph /  33.3 km/h 80 % 0.00 in /  0 mm
06:56 34.6 °F /  1.4 °C 29.4 °F /  -1.4 °C 30.14 in /  1020.5 hPa NE 8.9 mph /  14.3 km/h 15.0 mph /  24.1 km/h 81 % 0.00 in /  0 mm
07:01 34.6 °F /  1.4 °C 29.4 °F /  -1.4 °C 30.14 in /  1020.5 hPa ENE 9.6 mph /  15.4 km/h 12.7 mph /  20.4 km/h 81 % 0.00 in /  0 mm
07:06 34.6 °F /  1.4 °C 29.4 °F /  -1.4 °C 30.14 in /  1020.5 hPa NNE 10.8 mph /  17.4 km/h 16.1 mph /  25.9 km/h 81 % 0.00 in /  0 mm
07:11 34.6 °F /  1.4 °C 29.4 °F /  -1.4 °C 30.14 in /  1020.5 hPa NE 8.7 mph /  14 km/h 15.0 mph /  24.1 km/h 81 % 0.00 in /  0 mm
07:16 34.6 °F /  1.4 °C 29.4 °F /  -1.4 °C 30.15 in /  1020.9 hPa NE 6.8 mph /  10.9 km/h 16.1 mph /  25.9 km/h 81 % 0.00 in /  0 mm
07:21 34.6 °F /  1.4 °C 29.4 °F /  -1.4 °C 30.15 in /  1020.9 hPa ENE 7.5 mph /  12.1 km/h 13.8 mph /  22.2 km/h 81 % 0.00 in /  0 mm
07:26 34.6 °F /  1.4 °C 29.4 °F /  -1.4 °C 30.15 in /  1020.9 hPa NNE 10.5 mph /  16.9 km/h 15.0 mph /  24.1 km/h 81 % 0.00 in /  0 mm
07:31 34.6 °F /  1.4 °C 29.4 °F /  -1.4 °C 30.15 in /  1020.9 hPa NNE 9.9 mph /  15.9 km/h 16.1 mph /  25.9 km/h 81 % 0.00 in /  0 mm
07:36 34.6 °F /  1.4 °C 29.1 °F /  -1.6 °C 30.15 in /  1020.9 hPa NE 8.8 mph /  14.2 km/h 19.6 mph /  31.5 km/h 80 % 0.00 in /  0 mm
07:41 34.6 °F /  1.4 °C 29.4 °F /  -1.4 °C 30.15 in /  1020.9 hPa NNE 6.2 mph /  10 km/h 13.8 mph /  22.2 km/h 81 % 0.00 in /  0 mm
07:46 34.6 °F /  1.4 °C 29.4 °F /  -1.4 °C 30.15 in /  1020.9 hPa NNE 7.5 mph /  12.1 km/h 13.0 mph /  20.9 km/h 81 % 0.00 in /  0 mm
07:51 34.6 °F /  1.4 °C 29.4 °F /  -1.4 °C 30.14 in /  1020.5 hPa NE 8.1 mph /  13 km/h 12.0 mph /  19.3 km/h 81 % 0.00 in /  0 mm
07:56 34.6 °F /  1.4 °C 29.4 °F /  -1.4 °C 30.14 in /  1020.5 hPa ENE 8.1 mph /  13 km/h 12.0 mph /  19.3 km/h 81 % 0.00 in /  0 mm
08:06 34.7 °F /  1.5 °C 29.5 °F /  -1.4 °C 30.14 in /  1020.5 hPa NNE 9.9 mph /  15.9 km/h 16.0 mph /  25.7 km/h 81 % 0.00 in /  0 mm
08:11 34.7 °F /  1.5 °C 29.2 °F /  -1.6 °C 30.14 in /  1020.5 hPa ENE 7.9 mph /  12.7 km/h 11.5 mph /  18.5 km/h 80 % 0.00 in /  0 mm
08:16 34.8 °F /  1.6 °C 29.3 °F /  -1.5 °C 30.14 in /  1020.5 hPa NNW 6.6 mph /  10.6 km/h 13.0 mph /  20.9 km/h 80 % 0.00 in /  0 mm
08:21 34.8 °F /  1.6 °C 29.3 °F /  -1.5 °C 30.14 in /  1020.5 hPa NE 8.6 mph /  13.8 km/h 16.1 mph /  25.9 km/h 80 % 0.00 in /  0 mm
08:26 34.9 °F /  1.6 °C 29.0 °F /  -1.7 °C 30.14 in /  1020.5 hPa NNE 9.5 mph /  15.3 km/h 13.0 mph /  20.9 km/h 79 % 0.00 in /  0 mm
08:31 35.0 °F /  1.7 °C 29.5 °F /  -1.4 °C 30.14 in /  1020.5 hPa NNE 8.3 mph /  13.4 km/h 12.7 mph /  20.4 km/h 80 % 0.00 in /  0 mm
08:36 35.1 °F /  1.7 °C 29.2 °F /  -1.6 °C 30.14 in /  1020.5 hPa NE 7.8 mph /  12.6 km/h 11.5 mph /  18.5 km/h 79 % 0.00 in /  0 mm
08:41 35.2 °F /  1.8 °C 29.3 °F /  -1.5 °C 30.14 in /  1020.5 hPa NNE 10.8 mph /  17.4 km/h 19.6 mph /  31.5 km/h 79 % 0.00 in /  0 mm
08:46 35.2 °F /  1.8 °C 29.0 °F /  -1.7 °C 30.14 in /  1020.5 hPa NNE 10.1 mph /  16.3 km/h 15.0 mph /  24.1 km/h 78 % 0.00 in /  0 mm
08:51 35.5 °F /  1.9 °C 29.3 °F /  -1.5 °C 30.14 in /  1020.5 hPa NE 10.0 mph /  16.1 km/h 16.1 mph /  25.9 km/h 78 % 0.00 in /  0 mm
08:52 35.5 °F /  1.9 °C 29.3 °F /  -1.5 °C 30.14 in /  1020.5 hPa NE 11.1 mph /  17.9 km/h 16.1 mph /  25.9 km/h 78 % 0.00 in /  0 mm
08:57 35.8 °F /  2.1 °C 29.6 °F /  -1.3 °C 30.14 in /  1020.5 hPa NNE 9.5 mph /  15.3 km/h 15.0 mph /  24.1 km/h 78 % 0.00 in /  0 mm
09:02 35.9 °F /  2.2 °C 29.4 °F /  -1.4 °C 30.14 in /  1020.5 hPa NNE 8.5 mph /  13.7 km/h 12.7 mph /  20.4 km/h 77 % 0.00 in /  0 mm
09:07 36.0 °F /  2.2 °C 29.5 °F /  -1.4 °C 30.14 in /  1020.5 hPa NE 12.4 mph /  20 km/h 18.4 mph /  29.6 km/h 77 % 0.00 in /  0 mm
09:12 36.0 °F /  2.2 °C 29.5 °F /  -1.4 °C 30.14 in /  1020.5 hPa NNE 9.7 mph /  15.6 km/h 15.0 mph /  24.1 km/h 77 % 0.00 in /  0 mm
09:17 36.2 °F /  2.3 °C 30.0 °F /  -1.1 °C 30.14 in /  1020.5 hPa NNE 9.3 mph /  15 km/h 16.1 mph /  25.9 km/h 78 % 0.00 in /  0 mm
09:22 36.5 °F /  2.5 °C 30.0 °F /  -1.1 °C 30.14 in /  1020.5 hPa NE 9.5 mph /  15.3 km/h 16.1 mph /  25.9 km/h 77 % 0.00 in /  0 mm
09:27 36.8 °F /  2.7 °C 30.3 °F /  -0.9 °C 30.14 in /  1020.5 hPa NE 6.9 mph /  11.1 km/h 12.7 mph /  20.4 km/h 77 % 0.00 in /  0 mm
09:32 37.2 °F /  2.9 °C 30.3 °F /  -0.9 °C 30.15 in /  1020.9 hPa NE 7.7 mph /  12.4 km/h 13.8 mph /  22.2 km/h 76 % 0.00 in /  0 mm
09:37 37.6 °F /  3.1 °C 30.4 °F /  -0.9 °C 30.15 in /  1020.9 hPa NNE 10.0 mph /  16.1 km/h 15.0 mph /  24.1 km/h 75 % 0.00 in /  0 mm
09:42 37.9 °F /  3.3 °C 30.7 °F /  -0.7 °C 30.15 in /  1020.9 hPa ENE 9.4 mph /  15.1 km/h 11.5 mph /  18.5 km/h 75 % 0.00 in /  0 mm
09:48 38.2 °F /  3.4 °C 30.6 °F /  -0.8 °C 30.15 in /  1020.9 hPa NE 8.8 mph /  14.2 km/h 13.8 mph /  22.2 km/h 74 % 0.00 in /  0 mm
09:53 38.5 °F /  3.6 °C 30.9 °F /  -0.6 °C 30.16 in /  1021.2 hPa NE 11.0 mph /  17.7 km/h 17.3 mph /  27.8 km/h 74 % 0.00 in /  0 mm
09:58 38.6 °F /  3.7 °C 30.7 °F /  -0.7 °C 30.16 in /  1021.2 hPa NE 11.5 mph /  18.5 km/h 15.0 mph /  24.1 km/h 73 % 0.00 in /  0 mm
10:04 38.8 °F /  3.8 °C 30.9 °F /  -0.6 °C 30.16 in /  1021.2 hPa NE 10.2 mph /  16.4 km/h 13.8 mph /  22.2 km/h 73 % 0.00 in /  0 mm
10:09 39.2 °F /  4 °C 31.3 °F /  -0.4 °C 30.16 in /  1021.2 hPa NE 9.4 mph /  15.1 km/h 13.8 mph /  22.2 km/h 73 % 0.00 in /  0 mm
10:14 39.3 °F /  4.1 °C 31.0 °F /  -0.6 °C 30.16 in /  1021.2 hPa NNE 11.4 mph /  18.3 km/h 15.0 mph /  24.1 km/h 72 % 0.00 in /  0 mm
10:19 39.5 °F /  4.2 °C 30.9 °F /  -0.6 °C 30.16 in /  1021.2 hPa NE 11.0 mph /  17.7 km/h 18.4 mph /  29.6 km/h 71 % 0.00 in /  0 mm
10:24 39.6 °F /  4.2 °C 31.0 °F /  -0.6 °C 30.17 in /  1021.6 hPa NE 8.6 mph /  13.8 km/h 12.7 mph /  20.4 km/h 71 % 0.00 in /  0 mm
10:29 39.6 °F /  4.2 °C 31.0 °F /  -0.6 °C 30.17 in /  1021.6 hPa NNE 6.7 mph /  10.8 km/h 11.5 mph /  18.5 km/h 71 % 0.00 in /  0 mm
10:34 40.0 °F /  4.4 °C 31.7 °F /  -0.2 °C 30.17 in /  1021.6 hPa ENE 6.1 mph /  9.8 km/h 9.2 mph /  14.8 km/h 72 % 0.00 in /  0 mm
10:39 40.7 °F /  4.8 °C 32.4 °F /  0.2 °C 30.16 in /  1021.2 hPa NNE 7.7 mph /  12.4 km/h 12.0 mph /  19.3 km/h 72 % 0.00 in /  0 mm
10:44 41.5 °F /  5.3 °C 32.4 °F /  0.2 °C 30.16 in /  1021.2 hPa NNE 6.2 mph /  10 km/h 11.5 mph /  18.5 km/h 70 % 0.00 in /  0 mm
10:49 42.1 °F /  5.6 °C 33.0 °F /  0.6 °C 30.16 in /  1021.2 hPa NNE 7.2 mph /  11.6 km/h 10.0 mph /  16.1 km/h 70 % 0.00 in /  0 mm
10:54 42.3 °F /  5.7 °C 32.5 °F /  0.3 °C 30.16 in /  1021.2 hPa NNE 9.3 mph /  15 km/h 13.0 mph /  20.9 km/h 68 % 0.00 in /  0 mm
10:59 42.1 °F /  5.6 °C 31.9 °F /  -0.1 °C 30.16 in /  1021.2 hPa NE 6.5 mph /  10.5 km/h 12.7 mph /  20.4 km/h 67 % 0.00 in /  0 mm
11:14 41.7 °F /  5.4 °C 31.9 °F /  -0.1 °C 30.16 in /  1021.2 hPa NE 6.9 mph /  11.1 km/h 10.4 mph /  16.7 km/h 68 % 0.00 in /  0 mm
11:19 42.0 °F /  5.6 °C 31.8 °F /  -0.1 °C 30.16 in /  1021.2 hPa ENE 6.3 mph /  10.1 km/h 10.4 mph /  16.7 km/h 67 % 0.00 in /  0 mm
11:24 42.4 °F /  5.8 °C 32.6 °F /  0.3 °C 30.16 in /  1021.2 hPa NNE 6.1 mph /  9.8 km/h 8.0 mph /  12.9 km/h 68 % 0.00 in /  0 mm
11:29 43.0 °F /  6.1 °C 32.4 °F /  0.2 °C 30.16 in /  1021.2 hPa NE 4.9 mph /  7.9 km/h 10.4 mph /  16.7 km/h 66 % 0.00 in /  0 mm
11:34 43.6 °F /  6.4 °C 33.4 °F /  0.8 °C 30.16 in /  1021.2 hPa NE 5.9 mph /  9.5 km/h 11.5 mph /  18.5 km/h 67 % 0.00 in /  0 mm
11:39 44.0 °F /  6.7 °C 33.4 °F /  0.8 °C 30.16 in /  1021.2 hPa NNE 6.2 mph /  10 km/h 12.7 mph /  20.4 km/h 66 % 0.00 in /  0 mm
11:45 44.4 °F /  6.9 °C 33.4 °F /  0.8 °C 30.16 in /  1021.2 hPa NE 5.9 mph /  9.5 km/h 11.5 mph /  18.5 km/h 65 % 0.00 in /  0 mm
11:50 44.9 °F /  7.2 °C 33.5 °F /  0.8 °C 30.16 in /  1021.2 hPa NNE 5.4 mph /  8.7 km/h 9.2 mph /  14.8 km/h 64 % 0.00 in /  0 mm
11:55 45.3 °F /  7.4 °C 33.4 °F /  0.8 °C 30.16 in /  1021.2 hPa NE 5.4 mph /  8.7 km/h 9.2 mph /  14.8 km/h 63 % 0.00 in /  0 mm
12:00 45.6 °F /  7.6 °C 33.7 °F /  0.9 °C 30.16 in /  1021.2 hPa NE 4.9 mph /  7.9 km/h 8.1 mph /  13 km/h 63 % 0.00 in /  0 mm
12:05 45.9 °F /  7.7 °C 34.0 °F /  1.1 °C 30.16 in /  1021.2 hPa ENE 3.7 mph /  6 km/h 8.1 mph /  13 km/h 63 % 0.00 in /  0 mm
12:10 45.1 °F /  7.3 °C 33.2 °F /  0.7 °C 30.16 in /  1021.2 hPa NNE 5.6 mph /  9 km/h 8.1 mph /  13 km/h 63 % 0.00 in /  0 mm
12:15 44.6 °F /  7 °C 32.0 °F /  0 °C 30.16 in /  1021.2 hPa ENE 7.7 mph /  12.4 km/h 11.5 mph /  18.5 km/h 61 % 0.00 in /  0 mm
12:20 43.6 °F /  6.4 °C 32.6 °F /  0.3 °C 30.16 in /  1021.2 hPa ENE 6.8 mph /  10.9 km/h 12.7 mph /  20.4 km/h 65 % 0.00 in /  0 mm
12:25 43.3 °F /  6.3 °C 32.7 °F /  0.4 °C 30.16 in /  1021.2 hPa ENE 4.1 mph /  6.6 km/h 7.0 mph /  11.3 km/h 66 % 0.00 in /  0 mm
12:30 43.7 °F /  6.5 °C 33.5 °F /  0.8 °C 30.16 in /  1021.2 hPa NNE 5.2 mph /  8.4 km/h 9.2 mph /  14.8 km/h 67 % 0.00 in /  0 mm
12:35 44.3 °F /  6.8 °C 33.7 °F /  0.9 °C 30.16 in /  1021.2 hPa NE 5.4 mph /  8.7 km/h 8.0 mph /  12.9 km/h 66 % 0.00 in /  0 mm
12:40 45.0 °F /  7.2 °C 33.5 °F /  0.8 °C 30.16 in /  1021.2 hPa NE 5.9 mph /  9.5 km/h 8.1 mph /  13 km/h 64 % 0.00 in /  0 mm
12:45 45.2 °F /  7.3 °C 32.5 °F /  0.3 °C 30.16 in /  1021.2 hPa NNE 5.2 mph /  8.4 km/h 12.7 mph /  20.4 km/h 61 % 0.00 in /  0 mm
12:50 44.8 °F /  7.1 °C 33.0 °F /  0.6 °C 30.15 in /  1020.9 hPa ENE 5.8 mph /  9.3 km/h 8.1 mph /  13 km/h 63 % 0.00 in /  0 mm
12:55 44.6 °F /  7 °C 33.2 °F /  0.7 °C 30.15 in /  1020.9 hPa ENE 4.5 mph /  7.2 km/h 6.9 mph /  11.1 km/h 64 % 0.00 in /  0 mm
13:05 43.3 °F /  6.3 °C 31.5 °F /  -0.3 °C 30.15 in /  1020.9 hPa NE 8.4 mph /  13.5 km/h 12.7 mph /  20.4 km/h 63 % 0.00 in /  0 mm
13:10 43.0 °F /  6.1 °C 31.6 °F /  -0.2 °C 30.15 in /  1020.9 hPa ENE 8.7 mph /  14 km/h 11.5 mph /  18.5 km/h 64 % 0.00 in /  0 mm
13:15 42.9 °F /  6.1 °C 32.3 °F /  0.2 °C 30.15 in /  1020.9 hPa NE 7.6 mph /  12.2 km/h 13.8 mph /  22.2 km/h 66 % 0.00 in /  0 mm
13:20 42.7 °F /  5.9 °C 32.1 °F /  0.1 °C 30.14 in /  1020.5 hPa NE 8.6 mph /  13.8 km/h 11.5 mph /  18.5 km/h 66 % 0.00 in /  0 mm
13:25 42.5 °F /  5.8 °C 32.3 °F /  0.2 °C 30.14 in /  1020.5 hPa ENE 7.5 mph /  12.1 km/h 11.5 mph /  18.5 km/h 67 % 0.00 in /  0 mm
13:31 42.5 °F /  5.8 °C 32.3 °F /  0.2 °C 30.14 in /  1020.5 hPa ENE 7.1 mph /  11.4 km/h 11.5 mph /  18.5 km/h 67 % 0.00 in /  0 mm
13:36 42.8 °F /  6 °C 32.2 °F /  0.1 °C 30.14 in /  1020.5 hPa ENE 10.7 mph /  17.2 km/h 15.0 mph /  24.1 km/h 66 % 0.00 in /  0 mm
13:41 42.4 °F /  5.8 °C 31.5 °F /  -0.3 °C 30.13 in /  1020.2 hPa NE 8.5 mph /  13.7 km/h 16.1 mph /  25.9 km/h 65 % 0.00 in /  0 mm
13:46 42.3 °F /  5.7 °C 32.1 °F /  0.1 °C 30.13 in /  1020.2 hPa ENE 9.6 mph /  15.4 km/h 13.8 mph /  22.2 km/h 67 % 0.00 in /  0 mm
13:47 42.3 °F /  5.7 °C 32.1 °F /  0.1 °C 30.13 in /  1020.2 hPa NE 9.1 mph /  14.6 km/h 13.8 mph /  22.2 km/h 67 % 0.00 in /  0 mm
13:52 42.1 °F /  5.6 °C 31.9 °F /  -0.1 °C 30.13 in /  1020.2 hPa NE 9.0 mph /  14.5 km/h 11.5 mph /  18.5 km/h 67 % 0.00 in /  0 mm
13:57 42.0 °F /  5.6 °C 31.8 °F /  -0.1 °C 30.12 in /  1019.9 hPa East 8.6 mph /  13.8 km/h 13.8 mph /  22.2 km/h 67 % 0.00 in /  0 mm
14:02 42.3 °F /  5.7 °C 32.5 °F /  0.3 °C 30.12 in /  1019.9 hPa ENE 7.4 mph /  11.9 km/h 13.8 mph /  22.2 km/h 68 % 0.00 in /  0 mm
14:07 42.5 °F /  5.8 °C 33.0 °F /  0.6 °C 30.12 in /  1019.9 hPa ENE 7.7 mph /  12.4 km/h 11.0 mph /  17.7 km/h 69 % 0.00 in /  0 mm
14:12 42.7 °F /  5.9 °C 32.9 °F /  0.5 °C 30.12 in /  1019.9 hPa ENE 7.8 mph /  12.6 km/h 12.7 mph /  20.4 km/h 68 % 0.00 in /  0 mm
14:17 42.5 °F /  5.8 °C 31.9 °F /  -0.1 °C 30.12 in /  1019.9 hPa East 10.0 mph /  16.1 km/h 13.8 mph /  22.2 km/h 66 % 0.00 in /  0 mm
14:22 42.5 °F /  5.8 °C 31.9 °F /  -0.1 °C 30.12 in /  1019.9 hPa ENE 8.0 mph /  12.9 km/h 11.5 mph /  18.5 km/h 66 % 0.00 in /  0 mm
14:27 42.6 °F /  5.9 °C 32.4 °F /  0.2 °C 30.11 in /  1019.5 hPa ENE 7.3 mph /  11.7 km/h 10.4 mph /  16.7 km/h 67 % 0.00 in /  0 mm
14:32 42.7 °F /  5.9 °C 32.5 °F /  0.3 °C 30.11 in /  1019.5 hPa ENE 8.3 mph /  13.4 km/h 12.7 mph /  20.4 km/h 67 % 0.00 in /  0 mm
14:37 42.7 °F /  5.9 °C 32.5 °F /  0.3 °C 30.11 in /  1019.5 hPa NE 7.3 mph /  11.7 km/h 11.5 mph /  18.5 km/h 67 % 0.00 in /  0 mm
14:42 42.8 °F /  6 °C 31.8 °F /  -0.1 °C 30.11 in /  1019.5 hPa East 9.7 mph /  15.6 km/h 15.0 mph /  24.1 km/h 65 % 0.00 in /  0 mm
14:47 42.5 °F /  5.8 °C 31.9 °F /  -0.1 °C 30.11 in /  1019.5 hPa East 8.8 mph /  14.2 km/h 11.5 mph /  18.5 km/h 66 % 0.00 in /  0 mm
14:52 42.5 °F /  5.8 °C 31.6 °F /  -0.2 °C 30.11 in /  1019.5 hPa East 9.7 mph /  15.6 km/h 12.7 mph /  20.4 km/h 65 % 0.00 in /  0 mm
14:57 42.4 °F /  5.8 °C 32.2 °F /  0.1 °C 30.10 in /  1019.2 hPa ENE 8.3 mph /  13.4 km/h 13.8 mph /  22.2 km/h 67 % 0.00 in /  0 mm
15:02 42.5 °F /  5.8 °C 32.3 °F /  0.2 °C 30.10 in /  1019.2 hPa ENE 7.9 mph /  12.7 km/h 10.4 mph /  16.7 km/h 67 % 0.00 in /  0 mm
15:07 42.5 °F /  5.8 °C 31.6 °F /  -0.2 °C 30.10 in /  1019.2 hPa ENE 9.8 mph /  15.8 km/h 12.7 mph /  20.4 km/h 65 % 0.00 in /  0 mm
15:12 42.5 °F /  5.8 °C 32.3 °F /  0.2 °C 30.10 in /  1019.2 hPa ENE 5.9 mph /  9.5 km/h 10.4 mph /  16.7 km/h 67 % 0.00 in /  0 mm
15:17 42.7 °F /  5.9 °C 31.4 °F /  -0.3 °C 30.10 in /  1019.2 hPa ENE 7.3 mph /  11.7 km/h 11.5 mph /  18.5 km/h 64 % 0.00 in /  0 mm
15:22 42.9 °F /  6.1 °C 31.9 °F /  -0.1 °C 30.10 in /  1019.2 hPa ENE 6.1 mph /  9.8 km/h 11.5 mph /  18.5 km/h 65 % 0.00 in /  0 mm
15:27 42.8 °F /  6 °C 31.5 °F /  -0.3 °C 30.10 in /  1019.2 hPa ENE 4.6 mph /  7.4 km/h 8.1 mph /  13 km/h 64 % 0.00 in /  0 mm
15:32 42.6 °F /  5.9 °C 31.3 °F /  -0.4 °C 30.10 in /  1019.2 hPa NE 6.9 mph /  11.1 km/h 11.5 mph /  18.5 km/h 64 % 0.00 in /  0 mm
15:37 42.7 °F /  5.9 °C 32.1 °F /  0.1 °C 30.09 in /  1018.8 hPa East 6.9 mph /  11.1 km/h 9.2 mph /  14.8 km/h 66 % 0.00 in /  0 mm
15:42 42.9 °F /  6.1 °C 32.7 °F /  0.4 °C 30.09 in /  1018.8 hPa ENE 6.7 mph /  10.8 km/h 9.2 mph /  14.8 km/h 67 % 0.00 in /  0 mm
15:47 42.6 °F /  5.9 °C 31.7 °F /  -0.2 °C 30.09 in /  1018.8 hPa NE 10.0 mph /  16.1 km/h 13.8 mph /  22.2 km/h 65 % 0.00 in /  0 mm
15:52 42.5 °F /  5.8 °C 31.9 °F /  -0.1 °C 30.09 in /  1018.8 hPa NE 6.7 mph /  10.8 km/h 9.2 mph /  14.8 km/h 66 % 0.00 in /  0 mm
15:57 42.7 °F /  5.9 °C 32.1 °F /  0.1 °C 30.08 in /  1018.5 hPa East 7.2 mph /  11.6 km/h 10.4 mph /  16.7 km/h 66 % 0.00 in /  0 mm
16:03 42.7 °F /  5.9 °C 32.1 °F /  0.1 °C 30.08 in /  1018.5 hPa East 6.1 mph /  9.8 km/h 9.2 mph /  14.8 km/h 66 % 0.00 in /  0 mm
16:08 42.7 °F /  5.9 °C 31.7 °F /  -0.2 °C 30.08 in /  1018.5 hPa ENE 8.5 mph /  13.7 km/h 11.5 mph /  18.5 km/h 65 % 0.00 in /  0 mm
16:13 42.5 °F /  5.8 °C 31.9 °F /  -0.1 °C 30.08 in /  1018.5 hPa ENE 4.9 mph /  7.9 km/h 10.4 mph /  16.7 km/h 66 % 0.00 in /  0 mm
16:18 42.5 °F /  5.8 °C 32.3 °F /  0.2 °C 30.08 in /  1018.5 hPa ENE 5.8 mph /  9.3 km/h 6.9 mph /  11.1 km/h 67 % 0.00 in /  0 mm
16:23 42.6 °F /  5.9 °C 31.7 °F /  -0.2 °C 30.08 in /  1018.5 hPa ENE 6.0 mph /  9.7 km/h 10.4 mph /  16.7 km/h 65 % 0.00 in /  0 mm
16:28 42.6 °F /  5.9 °C 31.7 °F /  -0.2 °C 30.08 in /  1018.5 hPa East 6.5 mph /  10.5 km/h 8.1 mph /  13 km/h 65 % 0.00 in /  0 mm
16:33 42.6 °F /  5.9 °C 32.0 °F /  0 °C 30.08 in /  1018.5 hPa ENE 7.0 mph /  11.3 km/h 9.0 mph /  14.5 km/h 66 % 0.00 in /  0 mm
16:38 42.6 °F /  5.9 °C 32.8 °F /  0.4 °C 30.08 in /  1018.5 hPa ENE 5.0 mph /  8 km/h 8.0 mph /  12.9 km/h 68 % 0.00 in /  0 mm
16:43 42.6 °F /  5.9 °C 33.1 °F /  0.6 °C 30.08 in /  1018.5 hPa East 4.1 mph /  6.6 km/h 7.0 mph /  11.3 km/h 69 % 0.00 in /  0 mm
16:48 42.6 °F /  5.9 °C 32.8 °F /  0.4 °C 30.08 in /  1018.5 hPa East 6.0 mph /  9.7 km/h 9.0 mph /  14.5 km/h 68 % 0.00 in /  0 mm
16:53 42.5 °F /  5.8 °C 31.6 °F /  -0.2 °C 30.08 in /  1018.5 hPa East 5.0 mph /  8 km/h 10.0 mph /  16.1 km/h 65 % 0.00 in /  0 mm
16:58 42.4 °F /  5.8 °C 31.8 °F /  -0.1 °C 30.08 in /  1018.5 hPa ENE 5.4 mph /  8.7 km/h 7.0 mph /  11.3 km/h 66 % 0.00 in /  0 mm
17:03 42.3 °F /  5.7 °C 31.4 °F /  -0.3 °C 30.07 in /  1018.2 hPa East 4.9 mph /  7.9 km/h 7.0 mph /  11.3 km/h 65 % 0.00 in /  0 mm
17:08 42.2 °F /  5.7 °C 31.6 °F /  -0.2 °C 30.07 in /  1018.2 hPa East 7.0 mph /  11.3 km/h 9.0 mph /  14.5 km/h 66 % 0.00 in /  0 mm
17:13 42.0 °F /  5.6 °C 31.5 °F /  -0.3 °C 30.07 in /  1018.2 hPa East 5.0 mph /  8 km/h 9.0 mph /  14.5 km/h 66 % 0.00 in /  0 mm
17:18 41.9 °F /  5.5 °C 31.4 °F /  -0.3 °C 30.07 in /  1018.2 hPa East 7.0 mph /  11.3 km/h 9.0 mph /  14.5 km/h 66 % 0.00 in /  0 mm
17:23 41.7 °F /  5.4 °C 31.2 °F /  -0.4 °C 30.07 in /  1018.2 hPa ENE 7.0 mph /  11.3 km/h 8.0 mph /  12.9 km/h 66 % 0.00 in /  0 mm
17:28 41.6 °F /  5.3 °C 31.4 °F /  -0.3 °C 30.07 in /  1018.2 hPa East 6.2 mph /  10 km/h 9.2 mph /  14.8 km/h 67 % 0.00 in /  0 mm
17:33 41.5 °F /  5.3 °C 31.0 °F /  -0.6 °C 30.07 in /  1018.2 hPa East 6.0 mph /  9.7 km/h 9.0 mph /  14.5 km/h 66 % 0.00 in /  0 mm
17:38 41.3 °F /  5.2 °C 30.8 °F /  -0.7 °C 30.07 in /  1018.2 hPa ESE 6.5 mph /  10.5 km/h 7.0 mph /  11.3 km/h 66 % 0.00 in /  0 mm
17:43 41.2 °F /  5.1 °C 30.3 °F /  -0.9 °C 30.07 in /  1018.2 hPa East 6.6 mph /  10.6 km/h 9.2 mph /  14.8 km/h 65 % 0.00 in /  0 mm
17:48 41.1 °F /  5.1 °C 30.6 °F /  -0.8 °C 30.07 in /  1018.2 hPa East 6.0 mph /  9.7 km/h 8.0 mph /  12.9 km/h 66 % 0.00 in /  0 mm
17:53 41.0 °F /  5 °C 30.5 °F /  -0.8 °C 30.07 in /  1018.2 hPa East 6.0 mph /  9.7 km/h 10.0 mph /  16.1 km/h 66 % 0.00 in /  0 mm
17:58 40.9 °F /  4.9 °C 30.8 °F /  -0.7 °C 30.07 in /  1018.2 hPa East 6.8 mph /  10.9 km/h 9.2 mph /  14.8 km/h 67 % 0.00 in /  0 mm
18:03 40.7 °F /  4.8 °C 31.0 °F /  -0.6 °C 30.07 in /  1018.2 hPa East 6.3 mph /  10.1 km/h 8.1 mph /  13 km/h 68 % 0.00 in /  0 mm
18:08 40.6 °F /  4.8 °C 30.9 °F /  -0.6 °C 30.07 in /  1018.2 hPa East 5.6 mph /  9 km/h 7.0 mph /  11.3 km/h 68 % 0.00 in /  0 mm
18:13 40.5 °F /  4.7 °C 31.1 °F /  -0.5 °C 30.07 in /  1018.2 hPa East 5.3 mph /  8.5 km/h 8.0 mph /  12.9 km/h 69 % 0.00 in /  0 mm
18:18 40.4 °F /  4.7 °C 30.7 °F /  -0.7 °C 30.07 in /  1018.2 hPa ENE 5.6 mph /  9 km/h 6.9 mph /  11.1 km/h 68 % 0.00 in /  0 mm
18:23 40.2 °F /  4.6 °C 30.5 °F /  -0.8 °C 30.08 in /  1018.5 hPa East 4.7 mph /  7.6 km/h 6.9 mph /  11.1 km/h 68 % 0.00 in /  0 mm
18:28 40.2 °F /  4.6 °C 30.5 °F /  -0.8 °C 30.08 in /  1018.5 hPa East 6.7 mph /  10.8 km/h 8.1 mph /  13 km/h 68 % 0.00 in /  0 mm
18:33 40.0 °F /  4.4 °C 30.3 °F /  -0.9 °C 30.08 in /  1018.5 hPa East 4.7 mph /  7.6 km/h 6.9 mph /  11.1 km/h 68 % 0.00 in /  0 mm
18:38 39.8 °F /  4.3 °C 30.5 °F /  -0.8 °C 30.08 in /  1018.5 hPa East 4.8 mph /  7.7 km/h 6.9 mph /  11.1 km/h 69 % 0.00 in /  0 mm
18:43 39.7 °F /  4.3 °C 30.0 °F /  -1.1 °C 30.09 in /  1018.8 hPa East 4.1 mph /  6.6 km/h 5.8 mph /  9.3 km/h 68 % 0.00 in /  0 mm
18:48 39.6 °F /  4.2 °C 29.9 °F /  -1.2 °C 30.08 in /  1018.5 hPa East 2.6 mph /  4.2 km/h 6.9 mph /  11.1 km/h 68 % 0.00 in /  0 mm
18:53 39.5 °F /  4.2 °C 29.4 °F /  -1.4 °C 30.08 in /  1018.5 hPa East 2.3 mph /  3.7 km/h 4.6 mph /  7.4 km/h 67 % 0.00 in /  0 mm
18:58 39.5 °F /  4.2 °C 29.1 °F /  -1.6 °C 30.09 in /  1018.8 hPa East 2.2 mph /  3.5 km/h 4.6 mph /  7.4 km/h 66 % 0.00 in /  0 mm
19:03 39.4 °F /  4.1 °C 29.0 °F /  -1.7 °C 30.09 in /  1018.8 hPa East 0.6 mph /  1 km/h 2.0 mph /  3.2 km/h 66 % 0.00 in /  0 mm
19:08 39.3 °F /  4.1 °C 29.3 °F /  -1.5 °C 30.09 in /  1018.8 hPa East 1.3 mph /  2.1 km/h 3.5 mph /  5.6 km/h 67 % 0.00 in /  0 mm
19:18 39.1 °F /  3.9 °C 29.1 °F /  -1.6 °C 30.10 in /  1019.2 hPa Calm     67 % 0.00 in /  0 mm
19:23 39.0 °F /  3.9 °C 29.3 °F /  -1.5 °C 30.10 in /  1019.2 hPa Calm     68 % 0.00 in /  0 mm
19:28 38.9 °F /  3.8 °C 29.2 °F /  -1.6 °C 30.10 in /  1019.2 hPa Calm     68 % 0.00 in /  0 mm
19:33 38.8 °F /  3.8 °C 29.1 °F /  -1.6 °C 30.10 in /  1019.2 hPa Calm     68 % 0.00 in /  0 mm
19:38 38.6 °F /  3.7 °C 29.3 °F /  -1.5 °C 30.10 in /  1019.2 hPa Calm   2.3 mph /  3.7 km/h 69 % 0.00 in /  0 mm
19:43 38.5 °F /  3.6 °C 29.6 °F /  -1.3 °C 30.11 in /  1019.5 hPa Calm     70 % 0.00 in /  0 mm
19:48 38.3 °F /  3.5 °C 29.7 °F /  -1.3 °C 30.11 in /  1019.5 hPa East 0.5 mph /  0.8 km/h 1.2 mph /  1.9 km/h 71 % 0.00 in /  0 mm
19:53 38.1 °F /  3.4 °C 29.5 °F /  -1.4 °C 30.11 in /  1019.5 hPa Calm     71 % 0.00 in /  0 mm
19:58 37.9 °F /  3.3 °C 29.3 °F /  -1.5 °C 30.11 in /  1019.5 hPa East 0.5 mph /  0.8 km/h 1.0 mph /  1.6 km/h 71 % 0.00 in /  0 mm
20:03 37.7 °F /  3.2 °C 29.5 °F /  -1.4 °C 30.11 in /  1019.5 hPa East 0.4 mph /  0.6 km/h 2.3 mph /  3.7 km/h 72 % 0.00 in /  0 mm
20:08 37.4 °F /  3 °C 29.5 °F /  -1.4 °C 30.11 in /  1019.5 hPa Calm   2.3 mph /  3.7 km/h 73 % 0.00 in /  0 mm
20:14 37.3 °F /  2.9 °C 29.8 °F /  -1.2 °C 30.11 in /  1019.5 hPa Calm   2.3 mph /  3.7 km/h 74 % 0.00 in /  0 mm
20:19 37.2 °F /  2.9 °C 29.7 °F /  -1.3 °C 30.12 in /  1019.9 hPa Calm     74 % 0.00 in /  0 mm
20:24 37.0 °F /  2.8 °C 29.5 °F /  -1.4 °C 30.12 in /  1019.9 hPa Calm     74 % 0.00 in /  0 mm
20:29 36.9 °F /  2.7 °C 29.4 °F /  -1.4 °C 30.12 in /  1019.9 hPa Calm     74 % 0.00 in /  0 mm
20:34 36.8 °F /  2.7 °C 29.6 °F /  -1.3 °C 30.12 in /  1019.9 hPa Calm     75 % 0.00 in /  0 mm
20:39 36.6 °F /  2.6 °C 29.4 °F /  -1.4 °C 30.12 in /  1019.9 hPa Calm   1.2 mph /  1.9 km/h 75 % 0.00 in /  0 mm
20:44 36.4 °F /  2.4 °C 29.6 °F /  -1.3 °C 30.12 in /  1019.9 hPa Calm     76 % 0.00 in /  0 mm
20:49 36.2 °F /  2.3 °C 29.4 °F /  -1.4 °C 30.12 in /  1019.9 hPa Calm   1.2 mph /  1.9 km/h 76 % 0.00 in /  0 mm
20:54 36.0 °F /  2.2 °C 29.5 °F /  -1.4 °C 30.12 in /  1019.9 hPa Calm     77 % 0.00 in /  0 mm
20:59 35.8 °F /  2.1 °C 29.3 °F /  -1.5 °C 30.12 in /  1019.9 hPa Calm   1.2 mph /  1.9 km/h 77 % 0.00 in /  0 mm
21:04 35.6 °F /  2 °C 29.1 °F /  -1.6 °C 30.12 in /  1019.9 hPa Calm   1.2 mph /  1.9 km/h 77 % 0.00 in /  0 mm
21:10 35.5 °F /  1.9 °C 29.3 °F /  -1.5 °C 30.12 in /  1019.9 hPa Calm     78 % 0.00 in /  0 mm
21:15 35.2 °F /  1.8 °C 29.0 °F /  -1.7 °C 30.12 in /  1019.9 hPa ENE 1.0 mph /  1.6 km/h 2.3 mph /  3.7 km/h 78 % 0.00 in /  0 mm
21:20 35.0 °F /  1.7 °C 29.1 °F /  -1.6 °C 30.12 in /  1019.9 hPa NNW 0.5 mph /  0.8 km/h 2.3 mph /  3.7 km/h 79 % 0.00 in /  0 mm
21:25 34.8 °F /  1.6 °C 29.0 °F /  -1.7 °C 30.12 in /  1019.9 hPa NNW 0.1 mph /  0.2 km/h 1.2 mph /  1.9 km/h 79 % 0.00 in /  0 mm
21:30 34.8 °F /  1.6 °C 29.0 °F /  -1.7 °C 30.12 in /  1019.9 hPa NNW 1.3 mph /  2.1 km/h 2.3 mph /  3.7 km/h 79 % 0.00 in /  0 mm
21:35 34.6 °F /  1.4 °C 29.1 °F /  -1.6 °C 30.12 in /  1019.9 hPa NNW 0.7 mph /  1.1 km/h 2.3 mph /  3.7 km/h 80 % 0.00 in /  0 mm
21:40 34.5 °F /  1.4 °C 29.0 °F /  -1.7 °C 30.11 in /  1019.5 hPa NNW 0.5 mph /  0.8 km/h 2.3 mph /  3.7 km/h 80 % 0.00 in /  0 mm
21:45 34.4 °F /  1.3 °C 28.9 °F /  -1.7 °C 30.12 in /  1019.9 hPa NNW 0.9 mph /  1.4 km/h 2.3 mph /  3.7 km/h 80 % 0.00 in /  0 mm
21:50 34.2 °F /  1.2 °C 28.7 °F /  -1.8 °C 30.11 in /  1019.5 hPa NNW 0.3 mph /  0.5 km/h 1.2 mph /  1.9 km/h 80 % 0.00 in /  0 mm
21:55 34.2 °F /  1.2 °C 28.7 °F /  -1.8 °C 30.12 in /  1019.9 hPa Calm     80 % 0.00 in /  0 mm
22:00 34.1 °F /  1.2 °C 28.6 °F /  -1.9 °C 30.11 in /  1019.5 hPa NNW 0.3 mph /  0.5 km/h 1.2 mph /  1.9 km/h 80 % 0.00 in /  0 mm
22:05 34.1 °F /  1.2 °C 28.6 °F /  -1.9 °C 30.11 in /  1019.5 hPa NW 0.2 mph /  0.3 km/h 2.0 mph /  3.2 km/h 80 % 0.00 in /  0 mm
22:10 34.0 °F /  1.1 °C 28.2 °F /  -2.1 °C 30.11 in /  1019.5 hPa NW 1.1 mph /  1.8 km/h 2.3 mph /  3.7 km/h 79 % 0.00 in /  0 mm
22:15 34.0 °F /  1.1 °C 28.5 °F /  -1.9 °C 30.11 in /  1019.5 hPa NW 1.1 mph /  1.8 km/h 2.3 mph /  3.7 km/h 80 % 0.00 in /  0 mm
22:20 34.1 °F /  1.2 °C 28.6 °F /  -1.9 °C 30.11 in /  1019.5 hPa Calm     80 % 0.00 in /  0 mm
22:25 34.0 °F /  1.1 °C 28.5 °F /  -1.9 °C 30.11 in /  1019.5 hPa Calm   1.2 mph /  1.9 km/h 80 % 0.00 in /  0 mm
22:30 34.0 °F /  1.1 °C 28.5 °F /  -1.9 °C 30.11 in /  1019.5 hPa Calm     80 % 0.00 in /  0 mm
22:35 33.9 °F /  1.1 °C 28.4 °F /  -2 °C 30.11 in /  1019.5 hPa Calm     80 % 0.00 in /  0 mm
22:40 33.8 °F /  1 °C 28.0 °F /  -2.2 °C 30.11 in /  1019.5 hPa Calm     79 % 0.00 in /  0 mm
22:45 33.6 °F /  0.9 °C 28.1 °F /  -2.2 °C 30.11 in /  1019.5 hPa NW 0.3 mph /  0.5 km/h 2.3 mph /  3.7 km/h 80 % 0.00 in /  0 mm
22:50 33.4 °F /  0.8 °C 27.9 °F /  -2.3 °C 30.11 in /  1019.5 hPa Calm     80 % 0.00 in /  0 mm
22:55 33.2 °F /  0.7 °C 27.7 °F /  -2.4 °C 30.11 in /  1019.5 hPa Calm     80 % 0.00 in /  0 mm
23:00 32.9 °F /  0.5 °C 27.4 °F /  -2.6 °C 30.11 in /  1019.5 hPa Calm   1.2 mph /  1.9 km/h 80 % 0.00 in /  0 mm
23:05 32.6 °F /  0.3 °C 27.4 °F /  -2.6 °C 30.11 in /  1019.5 hPa Calm     81 % 0.00 in /  0 mm
23:11 32.3 °F /  0.2 °C 27.1 °F /  -2.7 °C 30.10 in /  1019.2 hPa Calm   1.2 mph /  1.9 km/h 81 % 0.00 in /  0 mm
23:15 32.2 °F /  0.1 °C 27.3 °F /  -2.6 °C 30.10 in /  1019.2 hPa Calm     82 % 0.00 in /  0 mm
23:21 32.1 °F /  0.1 °C 26.9 °F /  -2.8 °C 30.10 in /  1019.2 hPa Calm     81 % 0.00 in /  0 mm
23:26 32.1 °F /  0.1 °C 26.6 °F /  -3 °C 30.10 in /  1019.2 hPa NW 0.8 mph /  1.3 km/h 1.2 mph /  1.9 km/h 80 % 0.00 in /  0 mm
23:31 32.2 °F /  0.1 °C 26.4 °F /  -3.1 °C 30.09 in /  1018.8 hPa NW 0.2 mph /  0.3 km/h 2.3 mph /  3.7 km/h 79 % 0.00 in /  0 mm
23:36 32.3 °F /  0.2 °C 26.2 °F /  -3.2 °C 30.10 in /  1019.2 hPa NW 0.9 mph /  1.4 km/h 2.3 mph /  3.7 km/h 78 % 0.00 in /  0 mm
23:41 32.5 °F /  0.3 °C 26.4 °F /  -3.1 °C 30.10 in /  1019.2 hPa NW 0.4 mph /  0.6 km/h 2.3 mph /  3.7 km/h 78 % 0.00 in /  0 mm
23:46 32.7 °F /  0.4 °C 26.6 °F /  -3 °C 30.10 in /  1019.2 hPa Calm   1.2 mph /  1.9 km/h 78 % 0.00 in /  0 mm
23:51 32.8 °F /  0.4 °C 26.7 °F /  -2.9 °C 30.09 in /  1018.8 hPa Calm     78 % 0.00 in /  0 mm
23:56 32.9 °F /  0.5 °C 26.8 °F /  -2.9 °C 30.09 in /  1018.8 hPa NW 0.7 mph /  1.1 km/h 2.3 mph /  3.7 km/h 78 % 0.00 in /  0 mm
Crab Meadow Weather
Compliments of Weather Underground - 3 mb

Script developed by  Jim McMurry - jmcmurry@mwt.net Adapted for the template by  Wim van der Kuil - Leuven-Template.eu

Astronomy: It takes 16 million horsepower to break loose from the Earth's gravitational pull.